Neuburg — 5BQJ2 — position and weather

sailwx.info

Track history (hours):
 
Tides and Currents Weather Stations Pressure Air Temp Water Temp Dewpoint Dewpoint Depression Visibility Wind Speed Wind Dir Waves Ship Positions

Neuburg

Last reported at 2014-Oct-24 15:33 UTC. Time now 2014-Oct-24 18:50 UTC.
Position N 38°19' W 000°30'.

Length 142 m; draft 6.2 m.

Type: Ship (hazmat cat A). MMSI: 212740000.

Date/timePositionNaut miles runAvg speedWind from/ knotsBaromVisibWave heightAir tempDewpointWater temp
2014-Oct-24 15:33N 38°19' W 000°30'1514.7
2014-Oct-24 14:33N 38°05' W 000°23'1717.4
2014-Oct-24 13:33N 37°48' W 000°27'1716.9
2014-Oct-24 12:33N 37°32' W 000°33'1917.4
2014-Oct-24 11:29N 37°19' W 000°51'22217.2
2014-Oct-23 22:33N 36°02' W 005°10'23916.8
2014-Oct-23 08:18N 33°39' W 009°05'1317.4
2014-Oct-23 07:33N 33°31' W 009°17'3517.5
2014-Oct-23 05:31N 33°08' W 009°49'1717.6
2014-Oct-23 04:34N 32°57' W 010°05'  
2014-Oct-19 21:32N 34°24' W 007°50'1717.2
2014-Oct-19 20:33N 34°36' W 007°36'1717.0
2014-Oct-19 19:33N 34°48' W 007°21'11716.6
2014-Oct-19 12:33N 35°59' W 005°28'9 8.6
2014-Oct-19 11:33N 35°54' W 005°19'0 0.0
2014-Oct-19 10:33N 35°54' W 005°19'0 0.0
2014-Oct-19 09:33N 35°54' W 005°19'0 0.0
2014-Oct-19 08:33N 35°54' W 005°19'0 0.0
2014-Oct-19 07:33N 35°54' W 005°19'0 0.0
2014-Oct-19 06:33N 35°54' W 005°19'4 3.9
2014-Oct-19 05:34N 35°58' W 005°18'21216.1
2014-Oct-18 16:22N 37°09' W 001°09'1418.1
2014-Oct-18 15:34N 37°19' W 000°56'1918.2
2014-Oct-18 14:33N 37°31' W 000°38'1717.6
2014-Oct-18 13:33N 37°47' W 000°29'1818.0
2014-Oct-18 12:33N 38°05' W 000°24'16 1.1
2014-Oct-17 22:27N 38°20' W 000°30'8 8.6
2014-Oct-17 21:33N 38°13' W 000°25'1716.9
2014-Oct-17 20:33N 37°56' W 000°26'1717.0
2014-Oct-17 19:33N 37°40' W 000°29'1616.2
2014-Oct-17 18:33N 37°26' W 000°40'1916.8
2014-Oct-17 17:24N 37°13' W 000°59'1516.9
2014-Oct-17 16:32N 37°04' W 001°13'20317.0
2014-Oct-17 04:34N 35°60' W 005°12'  
Track history (hours):
 
Tides and Currents Weather Stations Pressure Air Temp Water Temp Dewpoint Dewpoint Depression Visibility Wind Speed Wind Dir Waves Ship Positions

Neuburg

Last reported at 2014-Oct-24 15:33 UTC. Time now 2014-Oct-24 18:50 UTC.
Position N 38°19' W 000°30'.

Length 142 m; draft 6.2 m.

Type: Ship (hazmat cat A). MMSI: 212740000.

Date/timePositionNaut miles runAvg speedWind from/ knotsBaromVisibWave heightAir tempDewpointWater temp
2014-Oct-24 15:33N 38°19' W 000°30'1514.7
2014-Oct-24 14:33N 38°05' W 000°23'1717.4
2014-Oct-24 13:33N 37°48' W 000°27'1716.9
2014-Oct-24 12:33N 37°32' W 000°33'1917.4
2014-Oct-24 11:29N 37°19' W 000°51'22217.2
2014-Oct-23 22:33N 36°02' W 005°10'23916.8
2014-Oct-23 08:18N 33°39' W 009°05'1317.4
2014-Oct-23 07:33N 33°31' W 009°17'3517.5
2014-Oct-23 05:31N 33°08' W 009°49'1717.6
2014-Oct-23 04:34N 32°57' W 010°05'  
2014-Oct-19 21:32N 34°24' W 007°50'1717.2
2014-Oct-19 20:33N 34°36' W 007°36'1717.0
2014-Oct-19 19:33N 34°48' W 007°21'11716.6
2014-Oct-19 12:33N 35°59' W 005°28'9 8.6
2014-Oct-19 11:33N 35°54' W 005°19'0 0.0
2014-Oct-19 10:33N 35°54' W 005°19'0 0.0
2014-Oct-19 09:33N 35°54' W 005°19'0 0.0
2014-Oct-19 08:33N 35°54' W 005°19'0 0.0
2014-Oct-19 07:33N 35°54' W 005°19'0 0.0
2014-Oct-19 06:33N 35°54' W 005°19'4 3.9
2014-Oct-19 05:34N 35°58' W 005°18'21216.1
2014-Oct-18 16:22N 37°09' W 001°09'1418.1
2014-Oct-18 15:34N 37°19' W 000°56'1918.2
2014-Oct-18 14:33N 37°31' W 000°38'1717.6
2014-Oct-18 13:33N 37°47' W 000°29'1818.0
2014-Oct-18 12:33N 38°05' W 000°24'16 1.1
2014-Oct-17 22:27N 38°20' W 000°30'8 8.6
2014-Oct-17 21:33N 38°13' W 000°25'1716.9
2014-Oct-17 20:33N 37°56' W 000°26'1717.0
2014-Oct-17 19:33N 37°40' W 000°29'1616.2
2014-Oct-17 18:33N 37°26' W 000°40'1916.8
2014-Oct-17 17:24N 37°13' W 000°59'1516.9
2014-Oct-17 16:32N 37°04' W 001°13'20317.0
2014-Oct-17 04:34N 35°60' W 005°12'  

Dump ship's entire track history